Terminal Aerodrome Forecast
Issued by NWS Lake Charles, LA

Home | Current Version | Previous Version | Text Only | Print | Product List | Glossary On
Versions: 1 2 3 4 5 6 7 8 9 10 11 12 13
000
FTUS44 KLCH 010500
TAFARA
TAF
KARA 010520Z 0106/0206 VRB05KT P6SM SCT050 BKN200
     FM011300 19005KT P6SM VCSH SCT040 BKN150
     FM011800 21008KT P6SM VCSH BKN050 PROB30 0118/0124 3SM TSRA
      BKN030CB
     FM020200 VRB03KT P6SM SCT050 BKN200=

USA.gov is the U.S. government's official web portal to all federal, state and local government web resources and services.